Aérodrome :
LOGIN :

S'inscrire | Disclaimer

   EN    FR    IT 

 










Légende :    VFR   VFR Marginal   IFR   IFR Intensif   IFR Très Intensif
Visi : 
Plafond : 
>= 8 km
>= 3000ft
5 à 8 km
1000 à 3000 ft
1500m à 5 km
500 à 1000 ft
800 à 1500m
200 à 500 ft
< 800m
< 200 ft
Symboles :   Orages  Brouillard  Fortes neiges  Fortes précipitations  Vent > 20 kt
SIGMETs :   Divers  Orages  Givrage  Turbulence  Onde Orograph.  Cendres Volcan.







- Altitude de l'aérodrome : 659 ft
- Code IATA : LGG


EBLG - Liège

DERNIER METAR :
  • 191450Z 33007KT 270V010 CAVOK 27/10 Q1017 NOSIG

METARs EXPIRÉS :
  • 191420Z 31005KT 260V350 CAVOK 26/09 Q1017 NOSIG
  • 191350Z VRB04KT CAVOK 26/10 Q1018 NOSIG
  • 191320Z 23005KT 170V290 CAVOK 27/09 Q1018 NOSIG
  • 191250Z 29004KT 240V010 CAVOK 27/10 Q1018 NOSIG
  • 191220Z VRB02KT CAVOK 26/11 Q1018 NOSIG

TAF TAF EBLG
Valide du 19 à 12h jusqu'au 20 à 18h UTC


191100Z 1912/2018 31004KT 9999 FEW045
PROB40
TEMPO 2011/2018 3500 SHRA TSRA
Pas de NOTAMs connus pour ce terrain.



MET'MAP, la Météo Aéronautique d'un coup d'oeil ! - Copyright ORBIFLY Décembre 2007 - Disclaimer

ORBIFLY MET'MAP TEAM :

Programmation & Développement : Alexandra Zaïnal
Conception & Développement : Baudouin d'Aumeries
Co-Programmation & Développement : Marc-Olivier Méhu
Soutien technique & logistique : Manuel Goepfert

Contact : metmap@orbifly.com




SOURCES & CREDITS :

   NOAA